Time;durP1;ratioP1;P1;durP2;ratioP2;P2;SDS_P1;SDS_P2;PMS_P1;PMS_P2;Temp;Humidity;BMP_temperature;BMP_pressure;BME280_temperature;BME280_humidity;BME280_pressure;Samples;Min_cycle;Max_cycle;Signal;HPM_P1;HPM_P2
2022/06/22 00:01:24;;;;;;;1.85;1.60;;;;;;;;;;5076953;28;20196;-59
2022/06/22 00:03:53;;;;;;;1.73;1.63;;;;;;;;;;5076628;28;20549;-61
2022/06/22 00:06:24;;;;;;;2.03;1.77;;;;;;;;;;5077575;28;20287;-61
2022/06/22 00:08:53;;;;;;;1.90;1.80;;;;;;;;;;5077287;28;20289;-60
2022/06/22 00:11:21;;;;;;;1.83;1.65;;;;;;;;;;5076920;28;20235;-60
2022/06/22 00:13:50;;;;;;;1.85;1.63;;;;;;;;;;5076903;28;20201;-60
2022/06/22 00:16:20;;;;;;;2.05;1.50;;;;;;;;;;5077434;28;20266;-61
2022/06/22 00:18:50;;;;;;;1.88;1.77;;;;;;;;;;5077166;28;20239;-60
2022/06/22 00:21:19;;;;;;;1.83;1.73;;;;;;;;;;5077244;28;20204;-59
2022/06/22 00:23:48;;;;;;;1.70;1.60;;;;;;;;;;5056766;28;20232;-58
2022/06/22 00:26:28;;;;;;;1.70;1.60;;;;;;;;;;5057951;28;20270;-61
2022/06/22 00:28:57;;;;;;;2.13;1.85;;;;;;;;;;5060953;28;20599;-60
2022/06/22 00:31:29;;;;;;;1.77;1.58;;;;;;;;;;5062320;28;20248;-60
2022/06/22 00:34:06;;;;;;;1.70;1.60;;;;;;;;;;5080758;28;20196;-60
2022/06/22 00:36:37;;;;;;;2.33;1.90;;;;;;;;;;5081159;28;20200;-60
2022/06/22 00:39:18;;;;;;;2.00;1.80;;;;;;;;;;5080987;28;20214;-60
2022/06/22 00:41:47;;;;;;;1.88;1.55;;;;;;;;;;5080304;28;20208;-60
2022/06/22 00:44:16;;;;;;;1.80;1.70;;;;;;;;;;5080616;28;20263;-60
2022/06/22 00:46:45;;;;;;;2.10;1.85;;;;;;;;;;5080638;28;20251;-61
2022/06/22 00:49:19;;;;;;;2.42;1.75;;;;;;;;;;5080869;28;20238;-60
2022/06/22 00:51:47;;;;;;;2.00;1.80;;;;;;;;;;5080695;28;20204;-60
2022/06/22 00:54:18;;;;;;;1.90;1.80;;;;;;;;;;5079519;28;20277;-60
2022/06/22 00:56:48;;;;;;;2.05;1.70;;;;;;;;;;5080170;28;20218;-60
2022/06/22 00:59:20;;;;;;;1.80;1.70;;;;;;;;;;5080347;28;20610;-60
2022/06/22 01:01:51;;;;;;;2.03;1.80;;;;;;;;;;5080248;28;20318;-60
2022/06/22 01:04:22;;;;;;;1.98;1.88;;;;;;;;;;5080305;28;20228;-61
2022/06/22 01:06:53;;;;;;;3.67;1.92;;;;;;;;;;5080615;28;20250;-60
2022/06/22 01:09:27;;;;;;;2.08;1.92;;;;;;;;;;5080704;28;20204;-60
2022/06/22 01:14:44;;;;;;;1.65;1.55;;;;;;;;;;5080050;28;20199;-60
2022/06/22 01:17:15;;;;;;;2.20;2.00;;;;;;;;;;5080292;28;20235;-60
2022/06/22 01:19:48;;;;;;;1.80;1.70;;;;;;;;;;5080157;28;20204;-60
2022/06/22 01:22:24;;;;;;;2.20;2.00;;;;;;;;;;5080240;28;20248;-60
2022/06/22 01:24:55;;;;;;;2.60;2.00;;;;;;;;;;5079842;28;20324;-60
2022/06/22 01:27:25;;;;;;;1.92;1.75;;;;;;;;;;5079280;28;20239;-61
2022/06/22 01:29:53;;;;;;;1.90;1.80;;;;;;;;;;5079806;28;20204;-60
2022/06/22 01:32:23;;;;;;;1.95;1.73;;;;;;;;;;5079340;28;20196;-60
2022/06/22 01:34:51;;;;;;;1.83;1.60;;;;;;;;;;5079133;28;20250;-60
2022/06/22 01:37:20;;;;;;;2.35;2.15;;;;;;;;;;5078844;28;20204;-60
2022/06/22 01:39:48;;;;;;;1.92;1.70;;;;;;;;;;5079430;28;20231;-61
2022/06/22 01:42:20;;;;;;;1.83;1.73;;;;;;;;;;5079695;28;20450;-60
2022/06/22 01:44:52;;;;;;;2.42;1.90;;;;;;;;;;5079594;28;20325;-60
2022/06/22 01:47:25;;;;;;;2.10;1.90;;;;;;;;;;5079747;28;20244;-60
2022/06/22 01:49:55;;;;;;;2.05;1.95;;;;;;;;;;5079436;28;20246;-60
2022/06/22 01:52:27;;;;;;;2.75;2.00;;;;;;;;;;5079219;28;20255;-60
2022/06/22 01:54:59;;;;;;;2.05;1.95;;;;;;;;;;5078497;28;20258;-60
2022/06/22 01:57:31;;;;;;;2.10;1.90;;;;;;;;;;5079109;28;20282;-60
2022/06/22 02:00:04;;;;;;;2.03;1.80;;;;;;;;;;5079500;28;20307;-60
2022/06/22 02:02:35;;;;;;;1.63;1.52;;;;;;;;;;5078778;28;20201;-60
2022/06/22 02:05:06;;;;;;;1.80;1.70;;;;;;;;;;5078919;28;20256;-60
2022/06/22 02:07:44;;;;;;;1.90;1.80;;;;;;;;;;5078924;28;20231;-60
2022/06/22 02:10:17;;;;;;;2.28;1.90;;;;;;;;;;5078761;28;20285;-60
2022/06/22 02:12:47;;;;;;;2.33;1.90;;;;;;;;;;5078850;28;20239;-60
2022/06/22 02:15:20;;;;;;;2.28;1.90;;;;;;;;;;5078886;28;20200;-60
2022/06/22 02:17:47;;;;;;;2.17;1.90;;;;;;;;;;5079092;28;20265;-60
2022/06/22 02:20:26;;;;;;;1.90;1.80;;;;;;;;;;5078016;28;20281;-60
2022/06/22 02:22:54;;;;;;;2.10;1.95;;;;;;;;;;5078348;28;20204;-60
2022/06/22 02:25:22;;;;;;;2.22;2.10;;;;;;;;;;5078741;28;20236;-60
2022/06/22 02:27:50;;;;;;;2.45;1.77;;;;;;;;;;5078823;28;20291;-61
2022/06/22 02:30:19;;;;;;;1.83;1.73;;;;;;;;;;5077913;28;20300;-60
2022/06/22 02:32:47;;;;;;;1.80;1.70;;;;;;;;;;5078368;28;20286;-60
2022/06/22 02:35:17;;;;;;;2.70;1.83;;;;;;;;;;5078666;28;20679;-60
2022/06/22 02:37:46;;;;;;;2.15;1.98;;;;;;;;;;5078768;28;20556;-60
2022/06/22 02:40:16;;;;;;;1.98;1.88;;;;;;;;;;5078424;28;20560;-61
2022/06/22 02:45:31;;;;;;;1.70;1.60;;;;;;;;;;5078607;28;20277;-60
2022/06/22 02:48:00;;;;;;;2.15;1.95;;;;;;;;;;5077915;28;20234;-60
2022/06/22 02:50:32;;;;;;;2.08;1.92;;;;;;;;;;5077185;28;20539;-61
2022/06/22 02:53:01;;;;;;;2.08;1.98;;;;;;;;;;5078233;28;20236;-60
2022/06/22 02:55:31;;;;;;;1.77;1.67;;;;;;;;;;5077602;28;20269;-61
2022/06/22 02:58:00;;;;;;;2.00;1.90;;;;;;;;;;5078125;28;20212;-61
2022/06/22 03:00:29;;;;;;;2.17;1.73;;;;;;;;;;5077402;28;20201;-60
2022/06/22 03:03:00;;;;;;;2.00;1.90;;;;;;;;;;5077864;28;20306;-60
2022/06/22 03:05:27;;;;;;;1.98;1.88;;;;;;;;;;5077760;28;20278;-60
2022/06/22 03:07:58;;;;;;;2.10;1.80;;;;;;;;;;5078444;28;20230;-60
2022/06/22 03:10:27;;;;;;;1.83;1.73;;;;;;;;;;5077013;28;20266;-60
2022/06/22 03:12:58;;;;;;;2.08;1.80;;;;;;;;;;5077279;28;20264;-60
2022/06/22 03:15:27;;;;;;;2.08;1.98;;;;;;;;;;5077901;28;20192;-60
2022/06/22 03:17:56;;;;;;;1.90;1.80;;;;;;;;;;5077840;28;20551;-60
2022/06/22 03:20:28;;;;;;;2.10;2.00;;;;;;;;;;5077767;28;20204;-60
2022/06/22 03:22:59;;;;;;;1.98;1.88;;;;;;;;;;5078339;28;20212;-60
2022/06/22 03:25:30;;;;;;;1.92;1.83;;;;;;;;;;5078173;28;20571;-60
2022/06/22 03:28:01;;;;;;;1.85;1.73;;;;;;;;;;5078106;28;20212;-61
2022/06/22 03:30:30;;;;;;;2.33;1.80;;;;;;;;;;5077262;28;20216;-60
2022/06/22 03:33:02;;;;;;;2.15;1.90;;;;;;;;;;5077251;28;20243;-60
2022/06/22 03:35:34;;;;;;;2.00;1.90;;;;;;;;;;5077457;28;20530;-60
2022/06/22 03:38:03;;;;;;;2.05;1.90;;;;;;;;;;5077166;28;20245;-60
2022/06/22 03:40:32;;;;;;;1.83;1.73;;;;;;;;;;5077089;28;20283;-60
2022/06/22 03:43:03;;;;;;;2.17;1.90;;;;;;;;;;5077231;28;20287;-60
2022/06/22 03:45:32;;;;;;;2.38;2.10;;;;;;;;;;5076816;28;20262;-60
2022/06/22 03:48:02;;;;;;;2.05;1.80;;;;;;;;;;5077201;28;20204;-60
2022/06/22 03:50:34;;;;;;;1.98;1.88;;;;;;;;;;5076575;28;20204;-60
2022/06/22 03:53:03;;;;;;;1.95;1.77;;;;;;;;;;5077033;28;20265;-60
2022/06/22 03:55:33;;;;;;;1.85;1.75;;;;;;;;;;5077098;28;20266;-61
2022/06/22 03:58:01;;;;;;;2.05;1.70;;;;;;;;;;5076519;28;20311;-61
2022/06/22 04:00:29;;;;;;;2.38;1.70;;;;;;;;;;5076812;28;20266;-60
2022/06/22 04:02:57;;;;;;;2.13;2.03;;;;;;;;;;5081358;28;20214;-60
2022/06/22 04:05:26;;;;;;;2.63;1.90;;;;;;;;;;5080880;28;20258;-60
2022/06/22 04:07:56;;;;;;;2.10;2.00;;;;;;;;;;5080438;28;20299;-60
2022/06/22 04:10:34;;;;;;;2.03;1.92;;;;;;;;;;5080806;28;20228;-60
2022/06/22 04:13:02;;;;;;;2.00;1.90;;;;;;;;;;5080850;28;20579;-60
2022/06/22 04:15:32;;;;;;;2.10;1.90;;;;;;;;;;5080909;28;20534;-60
2022/06/22 04:18:01;;;;;;;1.90;1.80;;;;;;;;;;5065079;28;20244;-60
2022/06/22 04:20:52;;;;;;;2.15;1.98;;;;;;;;;;5072691;28;20274;-61
2022/06/22 04:23:24;;;;;;;2.47;1.70;;;;;;;;;;5080572;28;20204;-61
2022/06/22 04:25:55;;;;;;;2.20;1.90;;;;;;;;;;5080179;28;20282;-60
2022/06/22 04:28:22;;;;;;;2.00;1.80;;;;;;;;;;5080246;28;20236;-60
2022/06/22 04:30:52;;;;;;;2.13;1.92;;;;;;;;;;5078969;28;20228;-60
2022/06/22 04:33:21;;;;;;;1.95;1.75;;;;;;;;;;5080116;28;20270;-61
2022/06/22 04:35:51;;;;;;;2.65;2.00;;;;;;;;;;5079021;28;20626;-61
2022/06/22 04:38:22;;;;;;;2.20;1.90;;;;;;;;;;5077520;28;20200;-58
2022/06/22 04:40:55;;;;;;;3.42;2.08;;;;;;;;;;5078282;28;20299;-58
2022/06/22 04:43:23;;;;;;;2.63;2.10;;;;;;;;;;5078959;28;20515;-59
2022/06/22 04:45:51;;;;;;;2.80;1.80;;;;;;;;;;5078890;28;20231;-59
2022/06/22 04:48:20;;;;;;;2.30;2.20;;;;;;;;;;5078702;28;20204;-59
2022/06/22 04:50:50;;;;;;;2.80;1.92;;;;;;;;;;5078239;28;20215;-59
2022/06/22 04:53:21;;;;;;;2.40;2.13;;;;;;;;;;5076949;28;20290;-58
2022/06/22 04:55:49;;;;;;;2.50;2.05;;;;;;;;;;5077153;28;20208;-59
2022/06/22 04:58:30;;;;;;;2.00;1.90;;;;;;;;;;5076549;28;20223;-58
2022/06/22 05:00:58;;;;;;;2.20;2.00;;;;;;;;;;5075854;28;20204;-59
2022/06/22 05:03:26;;;;;;;3.00;2.20;;;;;;;;;;5075210;28;20204;-58
2022/06/22 05:05:55;;;;;;;2.42;2.20;;;;;;;;;;5075664;28;20414;-58
2022/06/22 05:08:26;;;;;;;2.30;2.20;;;;;;;;;;5076540;28;20204;-58
2022/06/22 05:10:56;;;;;;;2.78;2.20;;;;;;;;;;5076265;28;20208;-58
2022/06/22 05:13:28;;;;;;;2.83;2.30;;;;;;;;;;5073042;28;20294;-58
2022/06/22 05:15:57;;;;;;;2.35;2.15;;;;;;;;;;5074560;28;20212;-58
2022/06/22 05:18:26;;;;;;;2.28;2.10;;;;;;;;;;5074605;28;20208;-58
2022/06/22 05:20:56;;;;;;;2.53;2.28;;;;;;;;;;5074413;28;20228;-58
2022/06/22 05:23:25;;;;;;;2.40;2.20;;;;;;;;;;5075421;28;20294;-58
2022/06/22 05:25:54;;;;;;;2.53;2.10;;;;;;;;;;5075110;28;20303;-58
2022/06/22 05:28:28;;;;;;;2.72;2.53;;;;;;;;;;5075458;28;20392;-58
2022/06/22 05:31:01;;;;;;;2.78;2.58;;;;;;;;;;5075030;28;20199;-58
2022/06/22 05:33:29;;;;;;;3.10;2.20;;;;;;;;;;5057404;28;20232;-60
2022/06/22 05:35:58;;;;;;;2.40;2.13;;;;;;;;;;5071875;28;20276;-59
2022/06/22 05:38:26;;;;;;;3.00;2.45;;;;;;;;;;5075394;28;20212;-58
2022/06/22 05:40:54;;;;;;;2.33;2.13;;;;;;;;;;5076585;28;20562;-58
2022/06/22 05:43:23;;;;;;;2.45;2.10;;;;;;;;;;5073812;28;20224;-59
2022/06/22 05:45:52;;;;;;;2.22;2.03;;;;;;;;;;5073703;28;20252;-58
2022/06/22 05:48:24;;;;;;;3.08;2.65;;;;;;;;;;5075263;28;20240;-58
2022/06/22 05:50:54;;;;;;;2.80;2.60;;;;;;;;;;5073894;28;20207;-58
2022/06/22 05:53:24;;;;;;;2.50;2.30;;;;;;;;;;5074030;28;20281;-59
2022/06/22 05:55:59;;;;;;;2.63;2.42;;;;;;;;;;5074545;28;20216;-59
2022/06/22 05:58:28;;;;;;;2.70;2.50;;;;;;;;;;5074177;28;20393;-59
2022/06/22 06:00:56;;;;;;;2.33;2.20;;;;;;;;;;5074047;28;20243;-58
2022/06/22 06:03:31;;;;;;;2.78;2.38;;;;;;;;;;5074693;28;20208;-58
2022/06/22 06:06:00;;;;;;;2.33;2.20;;;;;;;;;;5075220;28;20603;-59
2022/06/22 06:08:30;;;;;;;2.58;2.33;;;;;;;;;;5075028;28;20603;-58
2022/06/22 06:10:58;;;;;;;2.53;2.33;;;;;;;;;;5074686;28;20247;-58
2022/06/22 06:13:30;;;;;;;2.40;2.20;;;;;;;;;;5075152;28;20259;-59
2022/06/22 06:16:00;;;;;;;2.60;2.40;;;;;;;;;;5073356;28;20197;-59
2022/06/22 06:18:28;;;;;;;2.38;2.00;;;;;;;;;;5074535;28;20250;-59
2022/06/22 06:21:01;;;;;;;2.40;2.20;;;;;;;;;;5074743;28;20305;-58
2022/06/22 06:23:32;;;;;;;2.30;2.10;;;;;;;;;;5075287;28;20467;-58
2022/06/22 06:28:47;;;;;;;2.20;2.10;;;;;;;;;;5054684;28;20203;-59
2022/06/22 06:31:16;;;;;;;2.20;2.00;;;;;;;;;;5068705;28;20509;-59
2022/06/22 06:33:44;;;;;;;2.30;2.15;;;;;;;;;;5073065;28;20200;-59
2022/06/22 06:36:17;;;;;;;2.60;2.40;;;;;;;;;;5073598;28;20185;-59
2022/06/22 06:38:46;;;;;;;2.90;1.95;;;;;;;;;;5074553;28;20196;-59
2022/06/22 06:41:15;;;;;;;2.25;2.15;;;;;;;;;;5072255;28;20200;-59
2022/06/22 06:43:45;;;;;;;2.25;2.10;;;;;;;;;;5073890;28;20465;-58
2022/06/22 06:46:16;;;;;;;2.10;1.90;;;;;;;;;;5071660;28;20228;-58
2022/06/22 06:48:46;;;;;;;2.10;2.00;;;;;;;;;;5074233;28;20207;-58
2022/06/22 06:51:17;;;;;;;2.47;2.28;;;;;;;;;;5075007;28;20307;-58
2022/06/22 06:53:46;;;;;;;2.20;2.00;;;;;;;;;;5075288;28;20192;-58
2022/06/22 06:56:16;;;;;;;2.25;2.10;;;;;;;;;;5073077;28;20204;-58
2022/06/22 06:58:48;;;;;;;2.17;2.03;;;;;;;;;;5072870;28;20240;-58
2022/06/22 07:01:19;;;;;;;2.03;1.92;;;;;;;;;;5072430;28;20203;-58
2022/06/22 07:03:47;;;;;;;3.30;2.20;;;;;;;;;;5074056;28;20261;-58
2022/06/22 07:06:16;;;;;;;2.22;2.13;;;;;;;;;;5074015;28;20251;-58
2022/06/22 07:08:47;;;;;;;2.63;2.42;;;;;;;;;;5073118;28;20200;-58
2022/06/22 07:11:16;;;;;;;2.40;2.20;;;;;;;;;;5072164;28;20196;-58
2022/06/22 07:13:46;;;;;;;2.72;2.30;;;;;;;;;;5072931;28;20303;-58
2022/06/22 07:16:16;;;;;;;2.30;2.20;;;;;;;;;;5073350;28;20250;-58
2022/06/22 07:18:45;;;;;;;2.60;2.40;;;;;;;;;;5073929;28;20281;-58
2022/06/22 07:21:16;;;;;;;2.53;2.40;;;;;;;;;;5072733;28;20207;-58
2022/06/22 07:23:47;;;;;;;2.75;2.10;;;;;;;;;;5071797;28;20240;-58
2022/06/22 07:26:19;;;;;;;2.58;2.38;;;;;;;;;;5072866;28;20322;-58
2022/06/22 07:28:51;;;;;;;2.50;2.25;;;;;;;;;;5073454;28;20597;-58
2022/06/22 07:31:21;;;;;;;2.90;2.38;;;;;;;;;;5072401;28;20196;-58
2022/06/22 07:33:50;;;;;;;2.70;2.30;;;;;;;;;;5070969;28;20196;-58
2022/06/22 07:36:20;;;;;;;2.70;2.50;;;;;;;;;;5071853;28;20228;-58
2022/06/22 07:38:52;;;;;;;2.40;2.20;;;;;;;;;;5072561;28;20235;-58
2022/06/22 07:41:22;;;;;;;2.22;2.10;;;;;;;;;;5073255;28;20266;-58
2022/06/22 07:43:51;;;;;;;2.38;2.17;;;;;;;;;;5072223;28;20455;-58
2022/06/22 07:46:21;;;;;;;2.40;2.20;;;;;;;;;;5071823;28;20224;-58
2022/06/22 07:48:50;;;;;;;2.33;2.13;;;;;;;;;;5070857;28;20196;-58
2022/06/22 07:51:23;;;;;;;2.60;2.40;;;;;;;;;;5075402;28;20208;-58
2022/06/22 07:53:55;;;;;;;2.42;2.22;;;;;;;;;;5073929;28;20196;-58
2022/06/22 07:56:26;;;;;;;2.50;2.30;;;;;;;;;;5073492;28;20243;-58
2022/06/22 07:58:56;;;;;;;2.20;2.10;;;;;;;;;;5072345;28;20196;-58
2022/06/22 08:01:25;;;;;;;3.25;2.10;;;;;;;;;;5070504;28;20262;-58
2022/06/22 08:03:55;;;;;;;2.45;2.25;;;;;;;;;;5070683;28;20223;-58
2022/06/22 08:06:25;;;;;;;3.92;2.63;;;;;;;;;;5072381;28;20231;-58
2022/06/22 08:08:58;;;;;;;2.35;2.25;;;;;;;;;;5073615;28;20888;-58
2022/06/22 08:11:29;;;;;;;2.88;2.35;;;;;;;;;;5071908;28;20192;-58
2022/06/22 08:13:58;;;;;;;2.88;2.30;;;;;;;;;;5071729;28;20596;-59
2022/06/22 08:16:29;;;;;;;3.10;2.45;;;;;;;;;;5072624;28;20392;-58
2022/06/22 08:18:57;;;;;;;2.33;2.13;;;;;;;;;;5072475;28;20693;-58
2022/06/22 08:21:25;;;;;;;2.33;2.13;;;;;;;;;;5072004;28;20200;-58
2022/06/22 08:23:55;;;;;;;2.22;2.13;;;;;;;;;;5071612;28;20188;-58
2022/06/22 08:26:24;;;;;;;2.30;2.10;;;;;;;;;;5072310;28;20260;-59
2022/06/22 08:28:52;;;;;;;1.95;1.77;;;;;;;;;;5070812;28;20505;-58
2022/06/22 08:31:20;;;;;;;2.17;1.98;;;;;;;;;;5072145;28;20500;-58
2022/06/22 08:33:50;;;;;;;2.25;2.10;;;;;;;;;;5072165;28;20289;-58
2022/06/22 08:36:20;;;;;;;2.08;1.88;;;;;;;;;;5068942;28;20205;-58
2022/06/22 08:38:50;;;;;;;3.35;2.10;;;;;;;;;;5066945;28;20192;-58
2022/06/22 08:41:29;;;;;;;2.17;2.00;;;;;;;;;;5071184;28;20200;-59
2022/06/22 08:44:00;;;;;;;2.10;2.00;;;;;;;;;;5058762;28;20287;-58
2022/06/22 08:46:42;;;;;;;2.20;2.10;;;;;;;;;;5075894;28;20416;-58
2022/06/22 08:49:17;;;;;;;2.30;2.10;;;;;;;;;;5075506;28;20462;-59
2022/06/22 08:51:56;;;;;;;2.30;2.20;;;;;;;;;;5076290;28;20446;-58
2022/06/22 08:54:35;;;;;;;2.08;1.98;;;;;;;;;;5075392;28;20226;-58
2022/06/22 08:57:06;;;;;;;2.28;2.08;;;;;;;;;;5074117;28;20224;-58
2022/06/22 08:59:52;;;;;;;3.22;2.30;;;;;;;;;;5073241;28;20200;-58
2022/06/22 09:02:38;;;;;;;2.15;1.95;;;;;;;;;;5074987;28;20204;-58
2022/06/22 09:05:26;;;;;;;2.20;2.00;;;;;;;;;;5074160;28;20296;-57
2022/06/22 09:08:05;;;;;;;2.42;1.98;;;;;;;;;;5040603;28;20258;-58
2022/06/22 09:10:46;;;;;;;2.60;2.40;;;;;;;;;;5073082;28;20239;-58
2022/06/22 09:13:31;;;;;;;2.30;2.10;;;;;;;;;;5073605;28;20231;-58
2022/06/22 09:16:06;;;;;;;2.60;2.40;;;;;;;;;;5051009;28;20259;-58
2022/06/22 09:18:41;;;;;;;2.40;2.20;;;;;;;;;;5074395;28;20692;-58
2022/06/22 09:21:23;;;;;;;2.38;2.17;;;;;;;;;;5074676;28;20204;-58
2022/06/22 09:23:54;;;;;;;2.33;2.08;;;;;;;;;;5074496;28;20200;-58
2022/06/22 09:26:30;;;;;;;2.50;2.30;;;;;;;;;;5075028;28;20236;-58
2022/06/22 09:28:59;;;;;;;2.40;2.00;;;;;;;;;;5075340;28;20618;-58
2022/06/22 09:31:46;;;;;;;2.72;2.15;;;;;;;;;;5075462;28;20291;-58
2022/06/22 09:34:34;;;;;;;2.50;2.30;;;;;;;;;;5075468;28;20204;-58
2022/06/22 09:37:14;;;;;;;2.40;2.20;;;;;;;;;;5040748;28;20251;-58
2022/06/22 09:39:55;;;;;;;2.17;2.03;;;;;;;;;;5074666;28;20238;-58
2022/06/22 09:42:47;;;;;;;2.42;2.22;;;;;;;;;;5074741;28;20232;-58
2022/06/22 09:45:29;;;;;;;2.58;2.38;;;;;;;;;;5053666;28;20547;-58
2022/06/22 09:48:07;;;;;;;2.20;2.10;;;;;;;;;;5056856;28;20256;-58
2022/06/22 09:50:52;;;;;;;2.95;2.20;;;;;;;;;;5074288;28;20595;-58
2022/06/22 09:53:27;;;;;;;2.80;2.40;;;;;;;;;;5073510;28;20559;-58
2022/06/22 09:59:07;;;;;;;2.42;2.33;;;;;;;;;;5073716;28;20192;-58
2022/06/22 10:01:42;;;;;;;2.40;2.20;;;;;;;;;;5066442;28;20197;-58
2022/06/22 10:04:24;;;;;;;2.45;2.25;;;;;;;;;;5073182;28;20292;-58
2022/06/22 10:06:57;;;;;;;2.45;2.30;;;;;;;;;;5074378;28;20331;-59
2022/06/22 10:09:37;;;;;;;2.30;2.20;;;;;;;;;;5073979;28;20603;-58
2022/06/22 10:12:14;;;;;;;2.58;2.38;;;;;;;;;;5056960;28;20655;-58
2022/06/22 10:15:02;;;;;;;3.67;2.35;;;;;;;;;;5072850;28;20257;-58
2022/06/22 10:17:54;;;;;;;2.90;2.70;;;;;;;;;;5073713;28;20196;-58
2022/06/22 10:20:33;;;;;;;2.28;2.08;;;;;;;;;;5054467;28;20228;-58
2022/06/22 10:23:07;;;;;;;2.95;2.75;;;;;;;;;;5073049;28;20669;-58
2022/06/22 10:25:42;;;;;;;2.42;2.33;;;;;;;;;;5073235;28;20295;-58
2022/06/22 10:28:30;;;;;;;2.75;2.55;;;;;;;;;;5071880;28;20585;-58
2022/06/22 10:31:04;;;;;;;3.13;2.40;;;;;;;;;;5066607;28;20216;-58
2022/06/22 10:33:50;;;;;;;2.85;2.65;;;;;;;;;;5071820;28;20208;-58
2022/06/22 10:36:27;;;;;;;3.75;2.63;;;;;;;;;;5073858;28;20204;-58
2022/06/22 10:39:07;;;;;;;2.72;2.53;;;;;;;;;;5071625;28;20220;-58
2022/06/22 10:47:33;;;;;;;2.55;2.35;;;;;;;;;;5072934;28;20319;-58
2022/06/22 10:50:07;;;;;;;3.28;2.65;;;;;;;;;;5072668;28;20206;-58
2022/06/22 10:52:51;;;;;;;3.05;2.55;;;;;;;;;;5072114;28;20215;-58
2022/06/22 10:55:24;;;;;;;2.97;2.78;;;;;;;;;;5071443;28;20212;-58
2022/06/22 10:57:58;;;;;;;3.20;2.60;;;;;;;;;;5072186;28;20746;-58
2022/06/22 11:00:34;;;;;;;2.50;2.30;;;;;;;;;;5071489;28;20223;-58
2022/06/22 11:03:22;;;;;;;3.25;2.58;;;;;;;;;;5071319;28;20231;-58
2022/06/22 11:05:56;;;;;;;2.92;2.72;;;;;;;;;;5072502;28;20204;-58
2022/06/22 11:08:31;;;;;;;2.60;2.40;;;;;;;;;;5072553;28;20294;-58
2022/06/22 11:11:04;;;;;;;2.75;2.60;;;;;;;;;;5070543;28;20283;-58
2022/06/22 11:13:44;;;;;;;3.10;2.90;;;;;;;;;;5070948;28;20232;-58
2022/06/22 11:16:26;;;;;;;2.70;2.50;;;;;;;;;;5057926;28;20648;-58
2022/06/22 11:19:08;;;;;;;2.60;2.40;;;;;;;;;;5070693;28;20204;-58
2022/06/22 11:21:43;;;;;;;2.75;2.65;;;;;;;;;;5068000;28;20211;-58
2022/06/22 11:24:25;;;;;;;2.72;2.53;;;;;;;;;;5070099;28;20204;-58
2022/06/22 11:32:43;;;;;;;2.90;2.70;;;;;;;;;;5070215;28;20199;-58
2022/06/22 11:35:33;;;;;;;2.60;2.40;;;;;;;;;;5071084;28;20208;-58
2022/06/22 11:38:14;;;;;;;3.15;2.85;;;;;;;;;;5070349;28;20209;-58
2022/06/22 11:40:49;;;;;;;3.65;2.70;;;;;;;;;;5071502;28;20204;-58
2022/06/22 11:43:29;;;;;;;3.03;2.83;;;;;;;;;;5071646;28;20295;-58
2022/06/22 11:46:01;;;;;;;3.17;2.83;;;;;;;;;;5070345;28;20196;-58
2022/06/22 11:48:37;;;;;;;2.90;2.60;;;;;;;;;;5071491;28;20374;-58
2022/06/22 11:51:09;;;;;;;3.00;2.70;;;;;;;;;;5070959;28;20623;-58
2022/06/22 11:53:42;;;;;;;3.17;2.83;;;;;;;;;;5070858;28;20200;-58
2022/06/22 11:56:14;;;;;;;3.50;2.83;;;;;;;;;;5055567;28;20196;-58
2022/06/22 11:58:48;;;;;;;2.90;2.53;;;;;;;;;;5069436;28;20200;-58
2022/06/22 12:01:35;;;;;;;2.67;2.47;;;;;;;;;;5070950;28;20188;-58
2022/06/22 12:04:20;;;;;;;3.58;2.80;;;;;;;;;;5070653;28;20549;-58
2022/06/22 12:06:53;;;;;;;2.78;2.58;;;;;;;;;;5055937;28;20228;-58
2022/06/22 12:09:25;;;;;;;2.60;2.40;;;;;;;;;;5070204;28;20207;-58
2022/06/22 12:11:59;;;;;;;2.88;2.67;;;;;;;;;;5070348;28;20297;-58
2022/06/22 12:17:44;;;;;;;2.80;2.60;;;;;;;;;;5013982;28;20243;-58
2022/06/22 12:20:21;;;;;;;2.85;2.65;;;;;;;;;;5062394;28;20475;-58
2022/06/22 12:22:52;;;;;;;3.42;3.08;;;;;;;;;;5072961;28;20204;-58
2022/06/22 12:25:27;;;;;;;3.55;2.83;;;;;;;;;;5076334;28;20208;-58
2022/06/22 12:27:58;;;;;;;3.20;3.00;;;;;;;;;;5076868;28;20881;-58
2022/06/22 12:30:33;;;;;;;3.22;3.03;;;;;;;;;;5075880;28;20211;-58
2022/06/22 12:33:08;;;;;;;3.10;2.90;;;;;;;;;;5076067;28;20214;-58
2022/06/22 12:35:40;;;;;;;3.00;2.80;;;;;;;;;;5076761;28;20306;-58
2022/06/22 12:38:15;;;;;;;3.00;2.80;;;;;;;;;;5073779;28;20211;-58
2022/06/22 12:40:49;;;;;;;3.08;2.88;;;;;;;;;;5074353;28;20196;-58
2022/06/22 12:43:26;;;;;;;3.20;3.00;;;;;;;;;;5074529;28;20277;-58
2022/06/22 12:45:55;;;;;;;3.22;2.88;;;;;;;;;;5072820;28;20193;-58
2022/06/22 12:48:33;;;;;;;3.30;3.00;;;;;;;;;;5074174;28;20351;-58
2022/06/22 12:51:06;;;;;;;3.13;2.83;;;;;;;;;;5073599;28;20295;-58
2022/06/22 12:53:35;;;;;;;3.10;2.90;;;;;;;;;;5074038;28;20560;-58
2022/06/22 12:56:05;;;;;;;3.00;2.70;;;;;;;;;;5074371;28;20644;-58
2022/06/22 12:58:36;;;;;;;3.33;3.03;;;;;;;;;;5073698;28;20204;-58
2022/06/22 13:01:05;;;;;;;2.95;2.75;;;;;;;;;;5073022;28;20204;-58
2022/06/22 13:03:36;;;;;;;3.08;2.88;;;;;;;;;;5073986;28;20287;-58
2022/06/22 13:06:04;;;;;;;3.17;2.90;;;;;;;;;;5072141;28;20254;-58
2022/06/22 13:08:33;;;;;;;2.72;2.53;;;;;;;;;;5074997;28;20216;-58
2022/06/22 13:11:03;;;;;;;3.15;2.88;;;;;;;;;;5069744;28;20607;-58
2022/06/22 13:13:35;;;;;;;3.30;3.00;;;;;;;;;;5073656;28;20576;-58
2022/06/22 13:16:07;;;;;;;3.05;2.85;;;;;;;;;;5074526;28;20291;-59
2022/06/22 13:18:38;;;;;;;3.25;2.95;;;;;;;;;;5074325;28;20621;-58
2022/06/22 13:21:12;;;;;;;2.90;2.65;;;;;;;;;;5073336;28;20208;-58
2022/06/22 13:23:47;;;;;;;2.95;2.75;;;;;;;;;;5072722;28;20428;-59
2022/06/22 13:26:22;;;;;;;3.28;3.08;;;;;;;;;;5072451;28;20200;-58
2022/06/22 13:28:54;;;;;;;3.20;3.00;;;;;;;;;;5074598;28;20212;-58
2022/06/22 13:31:23;;;;;;;3.25;3.03;;;;;;;;;;5062176;28;20196;-58
2022/06/22 13:33:53;;;;;;;3.20;3.00;;;;;;;;;;5074082;28;20310;-58
2022/06/22 13:36:24;;;;;;;2.97;2.78;;;;;;;;;;5072804;28;20488;-58
2022/06/22 13:38:58;;;;;;;3.10;2.90;;;;;;;;;;5074046;28;20444;-58
2022/06/22 13:41:34;;;;;;;2.75;2.53;;;;;;;;;;5074867;28;20200;-58
2022/06/22 13:44:12;;;;;;;3.35;2.80;;;;;;;;;;5075770;28;20188;-58
2022/06/22 13:46:49;;;;;;;3.08;2.72;;;;;;;;;;5074885;28;20206;-58
2022/06/22 13:49:24;;;;;;;3.10;2.90;;;;;;;;;;5073865;28;20227;-58
2022/06/22 13:52:19;;;;;;;3.30;3.00;;;;;;;;;;5075835;28;20196;-58
2022/06/22 13:54:55;;;;;;;3.10;2.80;;;;;;;;;;5075276;28;20649;-58
2022/06/22 13:57:26;;;;;;;2.70;2.50;;;;;;;;;;5075523;28;20528;-58
2022/06/22 13:59:57;;;;;;;3.03;2.83;;;;;;;;;;5075522;28;20200;-58
2022/06/22 14:02:32;;;;;;;3.13;2.83;;;;;;;;;;5075103;28;20287;-58
2022/06/22 14:05:07;;;;;;;3.03;2.72;;;;;;;;;;5075084;28;20215;-58
2022/06/22 14:07:37;;;;;;;2.97;2.78;;;;;;;;;;5075837;28;20255;-58
2022/06/22 14:10:09;;;;;;;3.55;2.67;;;;;;;;;;5074363;28;20559;-58
2022/06/22 14:12:41;;;;;;;3.75;2.95;;;;;;;;;;5073930;28;20236;-58
2022/06/22 14:15:17;;;;;;;2.80;2.60;;;;;;;;;;5073237;28;20239;-58
2022/06/22 14:17:47;;;;;;;3.15;2.85;;;;;;;;;;5072733;28;20575;-58
2022/06/22 14:20:17;;;;;;;3.20;2.90;;;;;;;;;;5071484;28;20199;-58
2022/06/22 14:22:49;;;;;;;3.00;2.80;;;;;;;;;;5070814;28;20306;-58
2022/06/22 14:25:19;;;;;;;2.92;2.72;;;;;;;;;;5074734;28;20478;-58
2022/06/22 14:27:52;;;;;;;3.05;2.80;;;;;;;;;;5073932;28;20246;-58
2022/06/22 14:30:22;;;;;;;2.95;2.75;;;;;;;;;;5071694;28;20207;-58
2022/06/22 14:32:58;;;;;;;4.60;3.03;;;;;;;;;;5072283;28;20302;-58
2022/06/22 14:35:35;;;;;;;3.30;3.00;;;;;;;;;;5071945;28;20204;-58
2022/06/22 14:38:09;;;;;;;3.00;2.80;;;;;;;;;;5072652;28;20203;-58
2022/06/22 14:40:40;;;;;;;2.78;2.58;;;;;;;;;;5071024;28;20667;-58
2022/06/22 14:43:13;;;;;;;2.97;2.78;;;;;;;;;;5073224;28;20204;-58
2022/06/22 14:45:43;;;;;;;3.00;2.80;;;;;;;;;;5072292;28;20196;-58
2022/06/22 14:48:14;;;;;;;2.90;2.70;;;;;;;;;;5072355;28;20568;-58
2022/06/22 14:50:47;;;;;;;2.92;2.58;;;;;;;;;;5072305;28;20197;-59
2022/06/22 14:53:21;;;;;;;2.95;2.75;;;;;;;;;;5071995;28;20265;-58
2022/06/22 14:55:50;;;;;;;3.00;2.80;;;;;;;;;;5071660;28;20196;-58
2022/06/22 14:58:21;;;;;;;3.05;2.80;;;;;;;;;;5073191;28;20196;-58
2022/06/22 15:00:56;;;;;;;2.90;2.70;;;;;;;;;;5073281;28;20295;-58
2022/06/22 15:03:28;;;;;;;3.05;2.83;;;;;;;;;;5074669;28;20208;-58
2022/06/22 15:06:00;;;;;;;2.85;2.65;;;;;;;;;;5074767;28;20219;-58
2022/06/22 15:08:29;;;;;;;2.95;2.70;;;;;;;;;;5054685;28;20341;-58
2022/06/22 15:11:00;;;;;;;2.90;2.70;;;;;;;;;;5059250;28;20203;-58
2022/06/22 15:13:29;;;;;;;2.97;2.78;;;;;;;;;;5071438;28;20506;-58
2022/06/22 15:15:59;;;;;;;2.95;2.70;;;;;;;;;;5074706;28;20203;-58
2022/06/22 15:18:41;;;;;;;3.67;3.10;;;;;;;;;;5074136;28;20201;-58
2022/06/22 15:21:12;;;;;;;3.05;2.83;;;;;;;;;;5073466;28;20197;-58
2022/06/22 15:23:42;;;;;;;2.70;2.50;;;;;;;;;;5071836;28;20201;-58
2022/06/22 15:26:15;;;;;;;3.00;2.80;;;;;;;;;;5073590;28;20275;-58
2022/06/22 15:28:46;;;;;;;3.65;2.83;;;;;;;;;;5070109;28;20211;-58
2022/06/22 15:31:24;;;;;;;2.78;2.60;;;;;;;;;;5073288;28;20200;-58
2022/06/22 15:33:54;;;;;;;2.70;2.60;;;;;;;;;;5073284;28;20645;-58
2022/06/22 15:36:25;;;;;;;2.83;2.63;;;;;;;;;;5073164;28;20291;-58
2022/06/22 15:38:57;;;;;;;2.95;2.70;;;;;;;;;;5074169;28;20228;-58
2022/06/22 15:41:29;;;;;;;3.00;2.80;;;;;;;;;;5074031;28;20200;-58